SJJ weather

Sarajevo International Airport
Sarajevo, Federacija Bosna i Hercegovina, Bosnia and Herzegovina

Public forecast

Using degrees Celsius for public forecast. Weather courtesy of forecast.io.

Current aviation weather report (METAR) for Sarajevo International Airport

Retrieved 2020/05/26 06:00 UTC (2 minutes ago):

LQSA 260600Z 31005KT 8000 -RA SCT010 BKN033 09/09 Q1025

Aviation forecast (TAF) for Sarajevo International Airport

Forecast is more than 12 hours old.

Retrieved 2020/05/25 16:51 UTC (13 hours ago):

TAF TAF LQSA 251647Z 2516/2618 CNL